sensor_id;sensor_type;location;lat;lon;timestamp;temperature;humidity
20891;DHT22;10605;52.968;8.844;2022-11-04T00:13:38;11.30;99.90
20891;DHT22;10605;52.968;8.844;2022-11-04T00:16:04;11.30;99.90
20891;DHT22;10605;52.968;8.844;2022-11-04T00:18:48;11.30;99.90
20891;DHT22;10605;52.968;8.844;2022-11-04T00:21:14;11.30;99.90
20891;DHT22;10605;52.968;8.844;2022-11-04T00:23:58;11.30;99.90
20891;DHT22;10605;52.968;8.844;2022-11-04T00:26:42;11.20;99.90
20891;DHT22;10605;52.968;8.844;2022-11-04T00:29:26;11.20;99.90
20891;DHT22;10605;52.968;8.844;2022-11-04T00:31:52;11.20;99.90
20891;DHT22;10605;52.968;8.844;2022-11-04T00:34:36;11.20;99.90
20891;DHT22;10605;52.968;8.844;2022-11-04T00:37:02;11.20;99.90
20891;DHT22;10605;52.968;8.844;2022-11-04T00:39:28;11.20;99.90
20891;DHT22;10605;52.968;8.844;2022-11-04T00:41:54;11.20;99.90
20891;DHT22;10605;52.968;8.844;2022-11-04T00:44:19;11.20;99.90
20891;DHT22;10605;52.968;8.844;2022-11-04T00:46:45;11.20;99.90
20891;DHT22;10605;52.968;8.844;2022-11-04T00:49:11;11.20;99.90
20891;DHT22;10605;52.968;8.844;2022-11-04T00:51:37;11.20;99.90
20891;DHT22;10605;52.968;8.844;2022-11-04T00:54:03;11.20;99.90
20891;DHT22;10605;52.968;8.844;2022-11-04T00:56:29;11.20;99.90
20891;DHT22;10605;52.968;8.844;2022-11-04T00:58:54;11.20;99.90
20891;DHT22;10605;52.968;8.844;2022-11-04T01:01:20;11.20;99.90
20891;DHT22;10605;52.968;8.844;2022-11-04T01:03:50;11.30;99.90
20891;DHT22;10605;52.968;8.844;2022-11-04T01:06:17;11.30;99.90
20891;DHT22;10605;52.968;8.844;2022-11-04T01:08:43;11.30;99.90
20891;DHT22;10605;52.968;8.844;2022-11-04T01:11:09;11.20;99.90
20891;DHT22;10605;52.968;8.844;2022-11-04T01:13:35;11.30;99.90
20891;DHT22;10605;52.968;8.844;2022-11-04T01:16:04;11.30;99.90
20891;DHT22;10605;52.968;8.844;2022-11-04T01:18:30;11.30;99.90
20891;DHT22;10605;52.968;8.844;2022-11-04T01:21:00;11.30;99.90
20891;DHT22;10605;52.968;8.844;2022-11-04T01:23:26;11.40;99.90
20891;DHT22;10605;52.968;8.844;2022-11-04T01:25:52;11.40;99.90
20891;DHT22;10605;52.968;8.844;2022-11-04T01:28:17;11.30;99.90
20891;DHT22;10605;52.968;8.844;2022-11-04T01:30:43;11.30;99.90
20891;DHT22;10605;52.968;8.844;2022-11-04T01:33:08;11.30;99.90
20891;DHT22;10605;52.968;8.844;2022-11-04T01:35:34;11.30;99.90
20891;DHT22;10605;52.968;8.844;2022-11-04T01:38:00;11.30;99.90
20891;DHT22;10605;52.968;8.844;2022-11-04T01:40:25;11.40;99.90
20891;DHT22;10605;52.968;8.844;2022-11-04T01:42:51;11.40;99.90
20891;DHT22;10605;52.968;8.844;2022-11-04T01:45:19;11.40;99.90
20891;DHT22;10605;52.968;8.844;2022-11-04T01:48:04;11.50;99.90
20891;DHT22;10605;52.968;8.844;2022-11-04T01:50:32;11.50;99.90
20891;DHT22;10605;52.968;8.844;2022-11-04T01:53:09;11.50;99.90
20891;DHT22;10605;52.968;8.844;2022-11-04T01:55:41;11.50;99.90
20891;DHT22;10605;52.968;8.844;2022-11-04T01:58:13;11.50;99.90
20891;DHT22;10605;52.968;8.844;2022-11-04T02:00:41;11.60;99.90
20891;DHT22;10605;52.968;8.844;2022-11-04T02:03:28;11.60;99.90
20891;DHT22;10605;52.968;8.844;2022-11-04T02:05:55;11.60;99.90
20891;DHT22;10605;52.968;8.844;2022-11-04T02:08:22;11.60;99.90
20891;DHT22;10605;52.968;8.844;2022-11-04T02:10:58;11.60;99.90
20891;DHT22;10605;52.968;8.844;2022-11-04T02:13:24;11.60;99.90
20891;DHT22;10605;52.968;8.844;2022-11-04T02:16:05;11.50;99.90
20891;DHT22;10605;52.968;8.844;2022-11-04T02:29:33;11.40;99.90
20891;DHT22;10605;52.968;8.844;2022-11-04T02:32:21;11.40;99.90
20891;DHT22;10605;52.968;8.844;2022-11-04T02:35:10;11.30;99.90
20891;DHT22;10605;52.968;8.844;2022-11-04T02:49:09;11.30;99.90
20891;DHT22;10605;52.968;8.844;2022-11-04T02:51:49;11.30;99.90
20891;DHT22;10605;52.968;8.844;2022-11-04T02:54:27;11.20;99.90
20891;DHT22;10605;52.968;8.844;2022-11-04T02:56:55;11.20;99.90
20891;DHT22;10605;52.968;8.844;2022-11-04T02:59:37;11.20;99.90
20891;DHT22;10605;52.968;8.844;2022-11-04T03:02:07;11.10;99.90
20891;DHT22;10605;52.968;8.844;2022-11-04T03:04:39;11.10;99.90
20891;DHT22;10605;52.968;8.844;2022-11-04T03:07:08;11.20;99.90
20891;DHT22;10605;52.968;8.844;2022-11-04T03:09:37;11.10;99.90
20891;DHT22;10605;52.968;8.844;2022-11-04T03:12:08;11.10;99.90
20891;DHT22;10605;52.968;8.844;2022-11-04T03:14:51;11.00;99.90
20891;DHT22;10605;52.968;8.844;2022-11-04T03:17:29;11.00;99.90
20891;DHT22;10605;52.968;8.844;2022-11-04T03:19:57;11.00;99.90
20891;DHT22;10605;52.968;8.844;2022-11-04T03:22:35;11.00;99.90
20891;DHT22;10605;52.968;8.844;2022-11-04T03:25:05;10.90;99.90
20891;DHT22;10605;52.968;8.844;2022-11-04T03:27:55;10.90;99.90
20891;DHT22;10605;52.968;8.844;2022-11-04T03:30:23;10.90;99.90
20891;DHT22;10605;52.968;8.844;2022-11-04T03:32:57;10.90;99.90
20891;DHT22;10605;52.968;8.844;2022-11-04T03:35:26;10.90;99.90
20891;DHT22;10605;52.968;8.844;2022-11-04T03:37:52;10.90;99.90
20891;DHT22;10605;52.968;8.844;2022-11-04T03:40:19;10.90;99.90
20891;DHT22;10605;52.968;8.844;2022-11-04T03:43:02;10.90;99.90
20891;DHT22;10605;52.968;8.844;2022-11-04T03:45:29;11.00;99.90
20891;DHT22;10605;52.968;8.844;2022-11-04T03:47:55;11.00;99.90
20891;DHT22;10605;52.968;8.844;2022-11-04T03:50:28;11.00;99.90
20891;DHT22;10605;52.968;8.844;2022-11-04T03:52:55;11.00;99.90
20891;DHT22;10605;52.968;8.844;2022-11-04T03:55:30;11.00;99.90
20891;DHT22;10605;52.968;8.844;2022-11-04T03:58:05;10.90;99.90
20891;DHT22;10605;52.968;8.844;2022-11-04T04:00:39;10.80;99.90
20891;DHT22;10605;52.968;8.844;2022-11-04T04:03:08;10.80;99.90
20891;DHT22;10605;52.968;8.844;2022-11-04T04:08:15;10.70;99.90
20891;DHT22;10605;52.968;8.844;2022-11-04T04:11:01;10.60;99.90
20891;DHT22;10605;52.968;8.844;2022-11-04T04:16:29;10.60;99.90
20891;DHT22;10605;52.968;8.844;2022-11-04T04:19:19;10.50;99.90
20891;DHT22;10605;52.968;8.844;2022-11-04T04:21:55;10.50;99.90
20891;DHT22;10605;52.968;8.844;2022-11-04T04:24:27;10.60;99.90
20891;DHT22;10605;52.968;8.844;2022-11-04T04:27:13;10.60;99.90
20891;DHT22;10605;52.968;8.844;2022-11-04T04:30:03;10.60;99.90
20891;DHT22;10605;52.968;8.844;2022-11-04T04:32:36;10.70;99.90
20891;DHT22;10605;52.968;8.844;2022-11-04T04:35:05;10.80;99.90
20891;DHT22;10605;52.968;8.844;2022-11-04T04:37:51;10.80;99.90
20891;DHT22;10605;52.968;8.844;2022-11-04T04:40:19;10.70;99.90
20891;DHT22;10605;52.968;8.844;2022-11-04T04:43:14;10.70;99.90
20891;DHT22;10605;52.968;8.844;2022-11-04T04:45:59;10.60;99.90
20891;DHT22;10605;52.968;8.844;2022-11-04T04:48:25;10.60;99.90
20891;DHT22;10605;52.968;8.844;2022-11-04T04:50:52;10.60;99.90
20891;DHT22;10605;52.968;8.844;2022-11-04T04:53:21;10.60;99.90
20891;DHT22;10605;52.968;8.844;2022-11-04T04:55:47;10.70;99.90
20891;DHT22;10605;52.968;8.844;2022-11-04T04:58:13;10.70;99.90
20891;DHT22;10605;52.968;8.844;2022-11-04T05:00:38;10.70;99.90
20891;DHT22;10605;52.968;8.844;2022-11-04T05:03:04;10.70;99.90
20891;DHT22;10605;52.968;8.844;2022-11-04T05:05:30;10.70;99.90
20891;DHT22;10605;52.968;8.844;2022-11-04T05:08:03;10.70;99.90
20891;DHT22;10605;52.968;8.844;2022-11-04T05:10:29;10.80;99.90
20891;DHT22;10605;52.968;8.844;2022-11-04T05:12:55;10.80;99.90
20891;DHT22;10605;52.968;8.844;2022-11-04T05:15:39;10.90;99.90
20891;DHT22;10605;52.968;8.844;2022-11-04T05:18:05;10.90;99.90
20891;DHT22;10605;52.968;8.844;2022-11-04T05:20:30;10.90;99.90
20891;DHT22;10605;52.968;8.844;2022-11-04T05:22:58;10.80;99.90
20891;DHT22;10605;52.968;8.844;2022-11-04T05:25:24;10.80;99.90
20891;DHT22;10605;52.968;8.844;2022-11-04T05:27:50;10.70;99.90
20891;DHT22;10605;52.968;8.844;2022-11-04T05:30:15;10.80;99.90
20891;DHT22;10605;52.968;8.844;2022-11-04T05:32:41;10.80;99.90
20891;DHT22;10605;52.968;8.844;2022-11-04T05:35:07;10.70;99.90
20891;DHT22;10605;52.968;8.844;2022-11-04T05:37:33;10.70;99.90
20891;DHT22;10605;52.968;8.844;2022-11-04T05:39:58;10.70;99.90
20891;DHT22;10605;52.968;8.844;2022-11-04T05:42:24;10.80;99.90
20891;DHT22;10605;52.968;8.844;2022-11-04T05:44:49;10.80;99.90
20891;DHT22;10605;52.968;8.844;2022-11-04T05:47:15;10.80;99.90
20891;DHT22;10605;52.968;8.844;2022-11-04T05:49:41;10.80;99.90
20891;DHT22;10605;52.968;8.844;2022-11-04T05:52:06;10.90;99.90
20891;DHT22;10605;52.968;8.844;2022-11-04T05:54:32;10.90;99.90
20891;DHT22;10605;52.968;8.844;2022-11-04T05:56:57;10.90;99.90
20891;DHT22;10605;52.968;8.844;2022-11-04T05:59:23;10.90;99.90
20891;DHT22;10605;52.968;8.844;2022-11-04T06:01:49;10.90;99.90
20891;DHT22;10605;52.968;8.844;2022-11-04T06:04:16;10.90;99.90
20891;DHT22;10605;52.968;8.844;2022-11-04T06:06:43;10.90;99.90
20891;DHT22;10605;52.968;8.844;2022-11-04T06:09:09;10.90;99.90
20891;DHT22;10605;52.968;8.844;2022-11-04T06:11:35;10.90;99.90
20891;DHT22;10605;52.968;8.844;2022-11-04T06:14:01;10.90;99.90
20891;DHT22;10605;52.968;8.844;2022-11-04T06:16:27;10.80;99.90
20891;DHT22;10605;52.968;8.844;2022-11-04T06:18:55;10.90;99.90
20891;DHT22;10605;52.968;8.844;2022-11-04T06:21:30;10.80;99.90
20891;DHT22;10605;52.968;8.844;2022-11-04T06:23:57;10.80;99.90
20891;DHT22;10605;52.968;8.844;2022-11-04T06:26:24;10.80;99.90
20891;DHT22;10605;52.968;8.844;2022-11-04T06:28:50;10.80;99.90
20891;DHT22;10605;52.968;8.844;2022-11-04T06:31:17;10.70;99.90
20891;DHT22;10605;52.968;8.844;2022-11-04T06:33:43;10.60;99.90
20891;DHT22;10605;52.968;8.844;2022-11-04T06:36:12;10.70;99.90
20891;DHT22;10605;52.968;8.844;2022-11-04T06:38:38;10.70;99.90
20891;DHT22;10605;52.968;8.844;2022-11-04T06:41:11;10.70;99.90
20891;DHT22;10605;52.968;8.844;2022-11-04T06:43:37;10.80;99.90
20891;DHT22;10605;52.968;8.844;2022-11-04T06:46:03;10.80;99.90
20891;DHT22;10605;52.968;8.844;2022-11-04T06:48:30;10.80;99.90
20891;DHT22;10605;52.968;8.844;2022-11-04T06:50:59;10.70;99.90
20891;DHT22;10605;52.968;8.844;2022-11-04T06:53:26;10.70;99.90
20891;DHT22;10605;52.968;8.844;2022-11-04T06:55:52;10.70;99.90
20891;DHT22;10605;52.968;8.844;2022-11-04T06:58:18;10.70;99.90
20891;DHT22;10605;52.968;8.844;2022-11-04T07:00:54;10.70;99.90
20891;DHT22;10605;52.968;8.844;2022-11-04T07:03:20;10.70;99.90
20891;DHT22;10605;52.968;8.844;2022-11-04T07:05:45;10.70;99.90
20891;DHT22;10605;52.968;8.844;2022-11-04T07:08:11;10.70;99.90
20891;DHT22;10605;52.968;8.844;2022-11-04T07:10:37;10.70;99.90
20891;DHT22;10605;52.968;8.844;2022-11-04T07:13:03;10.80;99.90
20891;DHT22;10605;52.968;8.844;2022-11-04T07:15:28;10.80;99.90
20891;DHT22;10605;52.968;8.844;2022-11-04T07:17:54;10.80;99.90
20891;DHT22;10605;52.968;8.844;2022-11-04T07:20:20;10.70;99.90
20891;DHT22;10605;52.968;8.844;2022-11-04T07:22:46;10.60;99.90
20891;DHT22;10605;52.968;8.844;2022-11-04T07:25:12;10.60;99.90
20891;DHT22;10605;52.968;8.844;2022-11-04T07:27:38;10.60;99.90
20891;DHT22;10605;52.968;8.844;2022-11-04T07:30:04;10.60;99.90
20891;DHT22;10605;52.968;8.844;2022-11-04T07:32:31;10.60;99.90
20891;DHT22;10605;52.968;8.844;2022-11-04T07:34:57;10.60;99.90
20891;DHT22;10605;52.968;8.844;2022-11-04T07:37:24;10.50;99.90
20891;DHT22;10605;52.968;8.844;2022-11-04T07:39:51;10.60;99.90
20891;DHT22;10605;52.968;8.844;2022-11-04T07:42:16;10.60;99.90
20891;DHT22;10605;52.968;8.844;2022-11-04T07:44:42;10.60;99.90
20891;DHT22;10605;52.968;8.844;2022-11-04T07:47:08;10.60;99.90
20891;DHT22;10605;52.968;8.844;2022-11-04T07:49:33;10.70;99.90
20891;DHT22;10605;52.968;8.844;2022-11-04T07:51:59;10.70;99.90
20891;DHT22;10605;52.968;8.844;2022-11-04T07:54:25;10.90;99.90
20891;DHT22;10605;52.968;8.844;2022-11-04T07:56:51;10.90;99.90
20891;DHT22;10605;52.968;8.844;2022-11-04T07:59:17;11.00;99.90
20891;DHT22;10605;52.968;8.844;2022-11-04T08:01:43;11.10;99.90
20891;DHT22;10605;52.968;8.844;2022-11-04T08:04:09;11.10;99.90
20891;DHT22;10605;52.968;8.844;2022-11-04T08:06:36;11.20;99.90
20891;DHT22;10605;52.968;8.844;2022-11-04T08:09:01;11.20;99.90
20891;DHT22;10605;52.968;8.844;2022-11-04T08:11:27;11.20;99.90
20891;DHT22;10605;52.968;8.844;2022-11-04T08:13:54;11.20;99.90
20891;DHT22;10605;52.968;8.844;2022-11-04T08:16:22;11.30;99.90
20891;DHT22;10605;52.968;8.844;2022-11-04T08:18:49;11.30;99.90
20891;DHT22;10605;52.968;8.844;2022-11-04T08:21:18;11.60;99.90
20891;DHT22;10605;52.968;8.844;2022-11-04T08:23:44;11.90;99.90
20891;DHT22;10605;52.968;8.844;2022-11-04T08:26:18;11.90;99.90
20891;DHT22;10605;52.968;8.844;2022-11-04T08:28:45;12.20;99.90
20891;DHT22;10605;52.968;8.844;2022-11-04T08:31:22;12.40;99.90
20891;DHT22;10605;52.968;8.844;2022-11-04T08:33:50;12.50;99.90
20891;DHT22;10605;52.968;8.844;2022-11-04T08:36:28;12.10;99.90
20891;DHT22;10605;52.968;8.844;2022-11-04T08:38:55;12.20;99.90
20891;DHT22;10605;52.968;8.844;2022-11-04T08:41:27;12.60;99.90
20891;DHT22;10605;52.968;8.844;2022-11-04T08:43:55;13.10;99.90
20891;DHT22;10605;52.968;8.844;2022-11-04T08:46:21;13.80;99.90
20891;DHT22;10605;52.968;8.844;2022-11-04T08:48:47;14.20;99.90
20891;DHT22;10605;52.968;8.844;2022-11-04T08:51:23;14.60;99.90
20891;DHT22;10605;52.968;8.844;2022-11-04T08:53:49;15.30;99.90
20891;DHT22;10605;52.968;8.844;2022-11-04T08:56:21;15.50;99.90
20891;DHT22;10605;52.968;8.844;2022-11-04T08:58:48;15.50;99.90
20891;DHT22;10605;52.968;8.844;2022-11-04T09:01:14;14.80;99.90
20891;DHT22;10605;52.968;8.844;2022-11-04T09:03:41;14.40;99.90
20891;DHT22;10605;52.968;8.844;2022-11-04T09:06:10;14.30;99.90
20891;DHT22;10605;52.968;8.844;2022-11-04T09:08:36;14.10;99.90
20891;DHT22;10605;52.968;8.844;2022-11-04T09:11:09;13.90;99.90
20891;DHT22;10605;52.968;8.844;2022-11-04T09:13:36;14.20;99.90
20891;DHT22;10605;52.968;8.844;2022-11-04T09:16:03;13.90;99.90
20891;DHT22;10605;52.968;8.844;2022-11-04T09:18:29;13.60;99.90
20891;DHT22;10605;52.968;8.844;2022-11-04T09:20:58;13.70;99.90
20891;DHT22;10605;52.968;8.844;2022-11-04T09:23:25;13.90;99.90
20891;DHT22;10605;52.968;8.844;2022-11-04T09:25:50;13.90;99.90
20891;DHT22;10605;52.968;8.844;2022-11-04T09:28:16;13.60;99.90
20891;DHT22;10605;52.968;8.844;2022-11-04T09:30:42;13.40;99.90
20891;DHT22;10605;52.968;8.844;2022-11-04T09:33:07;13.30;99.90
20891;DHT22;10605;52.968;8.844;2022-11-04T09:35:33;13.40;99.90
20891;DHT22;10605;52.968;8.844;2022-11-04T09:37:59;13.30;99.90
20891;DHT22;10605;52.968;8.844;2022-11-04T09:40:28;13.10;99.90
20891;DHT22;10605;52.968;8.844;2022-11-04T09:45:42;13.00;99.90
20891;DHT22;10605;52.968;8.844;2022-11-04T09:48:38;13.10;99.90
20891;DHT22;10605;52.968;8.844;2022-11-04T09:51:04;14.30;99.90
20891;DHT22;10605;52.968;8.844;2022-11-04T09:56:12;15.10;99.90
20891;DHT22;10605;52.968;8.844;2022-11-04T09:58:39;14.90;99.90
20891;DHT22;10605;52.968;8.844;2022-11-04T10:01:30;16.20;99.90
20891;DHT22;10605;52.968;8.844;2022-11-04T10:04:16;16.10;99.90
20891;DHT22;10605;52.968;8.844;2022-11-04T10:10:02;17.00;99.90
20891;DHT22;10605;52.968;8.844;2022-11-04T10:30:50;15.60;99.90
20891;DHT22;10605;52.968;8.844;2022-11-04T10:34:08;15.10;99.90
20891;DHT22;10605;52.968;8.844;2022-11-04T10:37:37;15.10;99.90
20891;DHT22;10605;52.968;8.844;2022-11-04T10:40:30;15.70;99.90
20891;DHT22;10605;52.968;8.844;2022-11-04T10:47:33;15.40;99.90
20891;DHT22;10605;52.968;8.844;2022-11-04T10:53:53;16.90;99.90
20891;DHT22;10605;52.968;8.844;2022-11-04T11:04:13;16.60;99.90
20891;DHT22;10605;52.968;8.844;2022-11-04T11:20:38;14.80;99.90
20891;DHT22;10605;52.968;8.844;2022-11-04T11:34:02;13.10;99.90
20891;DHT22;10605;52.968;8.844;2022-11-04T11:37:24;13.10;99.90
20891;DHT22;10605;52.968;8.844;2022-11-04T11:40:39;12.90;99.90
20891;DHT22;10605;52.968;8.844;2022-11-04T11:43:31;14.10;99.90
20891;DHT22;10605;52.968;8.844;2022-11-04T11:46:01;14.20;99.90
20891;DHT22;10605;52.968;8.844;2022-11-04T11:49:22;13.70;99.90
20891;DHT22;10605;52.968;8.844;2022-11-04T12:46:55;14.10;99.90
20891;DHT22;10605;52.968;8.844;2022-11-04T13:12:29;13.40;99.90
20891;DHT22;10605;52.968;8.844;2022-11-04T13:15:34;13.50;99.90
20891;DHT22;10605;52.968;8.844;2022-11-04T13:32:44;13.40;99.90
20891;DHT22;10605;52.968;8.844;2022-11-04T13:36:07;13.40;99.90
20891;DHT22;10605;52.968;8.844;2022-11-04T13:39:14;13.50;99.90
20891;DHT22;10605;52.968;8.844;2022-11-04T13:49:31;13.40;99.90
20891;DHT22;10605;52.968;8.844;2022-11-04T14:14:25;13.10;99.90
20891;DHT22;10605;52.968;8.844;2022-11-04T14:21:27;13.20;99.90
20891;DHT22;10605;52.968;8.844;2022-11-04T14:27:47;13.20;99.90
20891;DHT22;10605;52.968;8.844;2022-11-04T14:34:56;13.30;99.90
20891;DHT22;10605;52.968;8.844;2022-11-04T14:45:24;13.40;99.90
20891;DHT22;10605;52.968;8.844;2022-11-04T14:51:46;13.40;99.90
20891;DHT22;10605;52.968;8.844;2022-11-04T14:54:20;13.40;99.90
20891;DHT22;10605;52.968;8.844;2022-11-04T14:56:47;13.30;99.90
20891;DHT22;10605;52.968;8.844;2022-11-04T14:59:23;13.20;99.90
20891;DHT22;10605;52.968;8.844;2022-11-04T15:01:52;13.20;99.90
20891;DHT22;10605;52.968;8.844;2022-11-04T15:04:28;13.10;99.90
20891;DHT22;10605;52.968;8.844;2022-11-04T15:06:57;13.00;99.90
20891;DHT22;10605;52.968;8.844;2022-11-04T15:09:39;12.90;99.90
20891;DHT22;10605;52.968;8.844;2022-11-04T15:14:52;12.70;99.90
20891;DHT22;10605;52.968;8.844;2022-11-04T15:17:19;12.60;99.90
20891;DHT22;10605;52.968;8.844;2022-11-04T15:19:53;12.50;99.90
20891;DHT22;10605;52.968;8.844;2022-11-04T15:22:21;12.40;99.90
20891;DHT22;10605;52.968;8.844;2022-11-04T15:24:47;12.30;99.90
20891;DHT22;10605;52.968;8.844;2022-11-04T15:27:26;12.20;99.90
20891;DHT22;10605;52.968;8.844;2022-11-04T15:30:01;12.10;99.90
20891;DHT22;10605;52.968;8.844;2022-11-04T15:32:29;11.90;99.90
20891;DHT22;10605;52.968;8.844;2022-11-04T15:34:56;11.90;99.90
20891;DHT22;10605;52.968;8.844;2022-11-04T15:37:23;11.90;99.90
20891;DHT22;10605;52.968;8.844;2022-11-04T15:39:55;11.90;99.90
20891;DHT22;10605;52.968;8.844;2022-11-04T15:42:25;11.80;99.90
20891;DHT22;10605;52.968;8.844;2022-11-04T15:45:24;11.70;99.90
20891;DHT22;10605;52.968;8.844;2022-11-04T15:51:12;11.60;99.90
20891;DHT22;10605;52.968;8.844;2022-11-04T15:53:59;11.60;99.90
20891;DHT22;10605;52.968;8.844;2022-11-04T15:56:32;11.50;99.90
20891;DHT22;10605;52.968;8.844;2022-11-04T15:58:59;11.40;99.90
20891;DHT22;10605;52.968;8.844;2022-11-04T16:01:25;11.20;99.90
20891;DHT22;10605;52.968;8.844;2022-11-04T16:03:58;11.10;99.90
20891;DHT22;10605;52.968;8.844;2022-11-04T16:09:50;10.90;99.90
20891;DHT22;10605;52.968;8.844;2022-11-04T16:12:25;10.80;99.90
20891;DHT22;10605;52.968;8.844;2022-11-04T16:14:56;10.70;99.90
20891;DHT22;10605;52.968;8.844;2022-11-04T16:17:23;10.70;99.90
20891;DHT22;10605;52.968;8.844;2022-11-04T16:19:58;10.70;99.90
20891;DHT22;10605;52.968;8.844;2022-11-04T16:22:31;10.70;99.90
20891;DHT22;10605;52.968;8.844;2022-11-04T16:24:59;10.80;99.90
20891;DHT22;10605;52.968;8.844;2022-11-04T16:27:28;10.70;99.90
20891;DHT22;10605;52.968;8.844;2022-11-04T16:30:11;10.60;99.90
20891;DHT22;10605;52.968;8.844;2022-11-04T16:33:08;10.60;99.90
20891;DHT22;10605;52.968;8.844;2022-11-04T16:35:37;10.70;99.90
20891;DHT22;10605;52.968;8.844;2022-11-04T16:38:07;10.80;99.90
20891;DHT22;10605;52.968;8.844;2022-11-04T16:40:33;10.80;99.90
20891;DHT22;10605;52.968;8.844;2022-11-04T16:42:58;10.80;99.90
20891;DHT22;10605;52.968;8.844;2022-11-04T16:45:32;10.80;99.90
20891;DHT22;10605;52.968;8.844;2022-11-04T16:47:59;10.80;99.90
20891;DHT22;10605;52.968;8.844;2022-11-04T16:50:25;10.70;99.90
20891;DHT22;10605;52.968;8.844;2022-11-04T16:52:52;10.70;99.90
20891;DHT22;10605;52.968;8.844;2022-11-04T16:55:19;10.70;99.90
20891;DHT22;10605;52.968;8.844;2022-11-04T16:57:50;10.60;99.90
20891;DHT22;10605;52.968;8.844;2022-11-04T17:00:22;10.50;99.90
20891;DHT22;10605;52.968;8.844;2022-11-04T17:02:48;10.40;99.90
20891;DHT22;10605;52.968;8.844;2022-11-04T17:05:14;10.30;99.90
20891;DHT22;10605;52.968;8.844;2022-11-04T17:07:40;10.30;99.90
20891;DHT22;10605;52.968;8.844;2022-11-04T17:10:15;10.30;99.90
20891;DHT22;10605;52.968;8.844;2022-11-04T17:12:42;10.20;99.90
20891;DHT22;10605;52.968;8.844;2022-11-04T17:15:08;10.10;99.90
20891;DHT22;10605;52.968;8.844;2022-11-04T17:17:34;10.10;99.90
20891;DHT22;10605;52.968;8.844;2022-11-04T17:20:04;10.00;99.90
20891;DHT22;10605;52.968;8.844;2022-11-04T17:22:32;10.00;99.90
20891;DHT22;10605;52.968;8.844;2022-11-04T17:24:59;9.90;99.90
20891;DHT22;10605;52.968;8.844;2022-11-04T17:27:25;10.00;99.90
20891;DHT22;10605;52.968;8.844;2022-11-04T17:29:50;9.90;99.90
20891;DHT22;10605;52.968;8.844;2022-11-04T17:32:16;9.80;99.90
20891;DHT22;10605;52.968;8.844;2022-11-04T17:34:41;9.80;99.90
20891;DHT22;10605;52.968;8.844;2022-11-04T17:37:12;9.70;99.90
20891;DHT22;10605;52.968;8.844;2022-11-04T17:39:38;9.60;99.90
20891;DHT22;10605;52.968;8.844;2022-11-04T17:42:04;9.50;99.90
20891;DHT22;10605;52.968;8.844;2022-11-04T17:44:49;9.40;99.90
20891;DHT22;10605;52.968;8.844;2022-11-04T17:47:14;9.40;99.90
20891;DHT22;10605;52.968;8.844;2022-11-04T17:49:41;9.30;99.90
20891;DHT22;10605;52.968;8.844;2022-11-04T17:52:07;9.20;99.90
20891;DHT22;10605;52.968;8.844;2022-11-04T17:54:33;9.10;99.90
20891;DHT22;10605;52.968;8.844;2022-11-04T17:56:59;9.00;99.90
20891;DHT22;10605;52.968;8.844;2022-11-04T17:59:25;9.00;99.90
20891;DHT22;10605;52.968;8.844;2022-11-04T18:01:51;9.00;99.90
20891;DHT22;10605;52.968;8.844;2022-11-04T18:04:19;8.90;99.90
20891;DHT22;10605;52.968;8.844;2022-11-04T18:06:47;8.90;99.90
20891;DHT22;10605;52.968;8.844;2022-11-04T18:09:13;8.80;99.90
20891;DHT22;10605;52.968;8.844;2022-11-04T18:11:41;8.80;99.90
20891;DHT22;10605;52.968;8.844;2022-11-04T18:14:26;8.80;99.90
20891;DHT22;10605;52.968;8.844;2022-11-04T18:16:52;8.70;99.90
20891;DHT22;10605;52.968;8.844;2022-11-04T18:19:19;8.70;99.90
20891;DHT22;10605;52.968;8.844;2022-11-04T18:21:46;8.70;99.90
20891;DHT22;10605;52.968;8.844;2022-11-04T18:24:12;8.70;99.90
20891;DHT22;10605;52.968;8.844;2022-11-04T18:26:38;8.80;99.90
20891;DHT22;10605;52.968;8.844;2022-11-04T18:29:04;8.80;99.90
20891;DHT22;10605;52.968;8.844;2022-11-04T18:31:33;8.80;99.90
20891;DHT22;10605;52.968;8.844;2022-11-04T18:34:07;8.80;99.90
20891;DHT22;10605;52.968;8.844;2022-11-04T18:36:34;8.70;99.90
20891;DHT22;10605;52.968;8.844;2022-11-04T18:39:00;8.70;99.90
20891;DHT22;10605;52.968;8.844;2022-11-04T18:41:26;8.70;99.90
20891;DHT22;10605;52.968;8.844;2022-11-04T18:43:52;8.70;99.90
20891;DHT22;10605;52.968;8.844;2022-11-04T18:46:18;8.60;99.90
20891;DHT22;10605;52.968;8.844;2022-11-04T18:48:48;8.60;99.90
20891;DHT22;10605;52.968;8.844;2022-11-04T18:51:16;8.60;99.90
20891;DHT22;10605;52.968;8.844;2022-11-04T18:53:43;8.60;99.90
20891;DHT22;10605;52.968;8.844;2022-11-04T18:56:12;8.50;99.90
20891;DHT22;10605;52.968;8.844;2022-11-04T18:58:38;8.50;99.90
20891;DHT22;10605;52.968;8.844;2022-11-04T19:01:13;8.40;99.90
20891;DHT22;10605;52.968;8.844;2022-11-04T19:03:43;8.40;99.90
20891;DHT22;10605;52.968;8.844;2022-11-04T19:06:12;8.40;99.90
20891;DHT22;10605;52.968;8.844;2022-11-04T19:08:38;8.40;99.90
20891;DHT22;10605;52.968;8.844;2022-11-04T19:11:16;8.40;99.90
20891;DHT22;10605;52.968;8.844;2022-11-04T19:13:42;8.40;99.90
20891;DHT22;10605;52.968;8.844;2022-11-04T19:16:12;8.40;99.90
20891;DHT22;10605;52.968;8.844;2022-11-04T19:18:38;8.30;99.90
20891;DHT22;10605;52.968;8.844;2022-11-04T19:21:10;8.30;99.90
20891;DHT22;10605;52.968;8.844;2022-11-04T19:23:37;8.20;99.90
20891;DHT22;10605;52.968;8.844;2022-11-04T19:26:08;8.10;99.90
20891;DHT22;10605;52.968;8.844;2022-11-04T19:28:37;8.10;99.90
20891;DHT22;10605;52.968;8.844;2022-11-04T19:31:04;8.00;99.90
20891;DHT22;10605;52.968;8.844;2022-11-04T19:33:30;7.90;99.90
20891;DHT22;10605;52.968;8.844;2022-11-04T19:35:57;7.90;99.90
20891;DHT22;10605;52.968;8.844;2022-11-04T19:38:24;7.90;99.90
20891;DHT22;10605;52.968;8.844;2022-11-04T19:40:51;7.90;99.90
20891;DHT22;10605;52.968;8.844;2022-11-04T19:43:18;7.80;99.90
20891;DHT22;10605;52.968;8.844;2022-11-04T19:45:44;7.70;99.90
20891;DHT22;10605;52.968;8.844;2022-11-04T19:48:12;7.60;99.90
20891;DHT22;10605;52.968;8.844;2022-11-04T19:50:43;7.60;99.90
20891;DHT22;10605;52.968;8.844;2022-11-04T19:53:09;7.60;99.90
20891;DHT22;10605;52.968;8.844;2022-11-04T19:55:35;7.60;99.90
20891;DHT22;10605;52.968;8.844;2022-11-04T19:58:01;7.50;99.90
20891;DHT22;10605;52.968;8.844;2022-11-04T20:00:28;7.40;99.90
20891;DHT22;10605;52.968;8.844;2022-11-04T20:02:54;7.40;99.90
20891;DHT22;10605;52.968;8.844;2022-11-04T20:05:20;7.40;99.90
20891;DHT22;10605;52.968;8.844;2022-11-04T20:07:45;7.30;99.90
20891;DHT22;10605;52.968;8.844;2022-11-04T20:10:11;7.20;99.90
20891;DHT22;10605;52.968;8.844;2022-11-04T20:12:37;7.20;99.90
20891;DHT22;10605;52.968;8.844;2022-11-04T20:15:21;7.00;99.90
20891;DHT22;10605;52.968;8.844;2022-11-04T20:17:47;7.00;99.90
20891;DHT22;10605;52.968;8.844;2022-11-04T20:20:13;7.00;99.90